Frobisher, Canada
Current Conditions -  °F | °C
As of 6:00 AM on Thursday 30 Oct 2014 (Local Time) from CYEN Reporting Station
Overcast Overcast  
Wind Chill: 26°   Ceiling: 1500
Heat Index: 34°   Visibility: 15mi
Dew Point: 30°   Wind: 9mph
Humidity: 87%   Direction: 360°N
Pressure: 30.27"   Gusts: NA
Location:  49.2°N, 102.42°W
Report Text: CYEN 301200Z 36008KT 15SM OVC015 01/M01 A3027 RMK SC8 SLP277
Loading
Personal Weather Stations






























Interactive Weather Map
Tropical Storm Tracking
New forecast layout! Learn more

10-Day Weather Forecast

Advertisements
Track Severe Weather on mobile